Time;durP1;ratioP1;P1;durP2;ratioP2;P2;SDS_P1;SDS_P2;PMS_P1;PMS_P2;Temp;Humidity;BMP_temperature;BMP_pressure;BME280_temperature;BME280_humidity;BME280_pressure;Samples;Min_cycle;Max_cycle;Signal;HPM_P1;HPM_P2
2023/10/08 00:01:19;;;;;;;0.80;0.80;;;;;;;4.65;83.83;96035.00;4986619;28;20469;-83
2023/10/08 00:03:48;;;;;;;0.90;0.90;;;;;;;4.66;83.46;96053.44;5032243;28;20061;-84
2023/10/08 00:06:23;;;;;;;0.80;0.80;;;;;;;4.66;83.49;96016.03;5031965;28;20485;-83
2023/10/08 00:08:50;;;;;;;0.82;0.82;;;;;;;4.56;83.93;96016.09;5032448;28;20048;-82
2023/10/08 00:11:22;;;;;;;0.90;0.90;;;;;;;4.66;83.36;96042.75;5048664;28;20076;-82
2023/10/08 00:13:50;;;;;;;0.90;0.90;;;;;;;4.65;82.99;96025.09;5056279;28;20046;-82
2023/10/08 00:16:17;;;;;;;0.90;0.90;;;;;;;4.68;82.33;96021.88;5089802;28;20040;-81
2023/10/08 00:18:50;;;;;;;0.90;0.90;;;;;;;4.63;82.38;96018.44;5091402;28;20098;-80
2023/10/08 00:21:19;;;;;;;0.90;0.90;;;;;;;4.57;82.00;96021.16;5094519;28;20047;-83
2023/10/08 00:23:52;;;;;;;0.90;0.90;;;;;;;4.61;81.93;96058.81;5093917;28;20044;-83
2023/10/08 00:26:32;;;;;;;0.90;0.90;;;;;;;4.65;81.76;96029.66;5094579;28;20523;-82
2023/10/08 00:29:15;;;;;;;0.80;0.80;;;;;;;4.67;81.89;96033.63;5094028;28;20048;-83
2023/10/08 00:31:45;;;;;;;0.90;0.90;;;;;;;4.67;81.97;96036.31;5095071;28;20091;-83
2023/10/08 00:34:13;;;;;;;0.90;0.90;;;;;;;4.66;82.36;96042.75;5094707;28;20056;-83
2023/10/08 00:36:43;;;;;;;0.90;0.90;;;;;;;4.66;82.69;96050.75;5094768;28;20428;-83
2023/10/08 00:39:14;;;;;;;0.90;0.90;;;;;;;4.65;82.43;96059.03;5094485;28;20052;-83
2023/10/08 00:41:43;;;;;;;0.90;0.90;;;;;;;4.62;82.57;96043.56;5094368;28;20040;-82
2023/10/08 00:44:22;;;;;;;0.88;0.88;;;;;;;4.63;82.95;96042.47;5094296;28;20044;-83
2023/10/08 00:46:50;;;;;;;0.90;0.90;;;;;;;4.60;82.46;96035.81;5078167;28;20055;-83
2023/10/08 00:49:40;;;;;;;0.90;0.90;;;;;;;4.56;82.43;96056.97;5094020;28;20048;-83
2023/10/08 00:57:21;;;;;;;0.90;0.90;;;;;;;4.56;81.35;96045.50;5093262;28;20079;-83
2023/10/08 00:59:53;;;;;;;0.90;0.90;;;;;;;4.54;80.57;96028.94;5093203;28;20456;-83
2023/10/08 01:02:24;;;;;;;0.82;0.82;;;;;;;4.48;81.02;96027.38;5093216;28;20048;-83
2023/10/08 01:04:57;;;;;;;0.90;0.90;;;;;;;4.48;80.51;96027.38;5093462;28;20059;-82
2023/10/08 01:07:25;;;;;;;0.90;0.90;;;;;;;4.48;80.10;96041.53;5093441;28;20063;-84
2023/10/08 01:09:58;;;;;;;0.90;0.90;;;;;;;4.47;80.15;96041.81;5093421;28;20054;-84
2023/10/08 01:12:27;;;;;;;0.90;0.90;;;;;;;4.48;79.60;96032.69;5094398;28;20134;-83
2023/10/08 01:14:55;;;;;;;0.90;0.90;;;;;;;4.44;79.38;96024.47;5094683;28;20052;-83
2023/10/08 01:17:26;;;;;;;0.88;0.88;;;;;;;4.41;79.63;96050.94;5092634;28;20065;-83
2023/10/08 01:19:56;;;;;;;0.90;0.90;;;;;;;4.38;79.56;96032.78;5092817;28;20474;-83
2023/10/08 01:22:29;;;;;;;0.90;0.90;;;;;;;4.32;79.57;96046.16;5093632;28;20409;-84
2023/10/08 01:24:57;;;;;;;0.85;0.85;;;;;;;4.32;79.45;96043.47;5093864;28;20068;-83
2023/10/08 01:27:30;;;;;;;0.90;0.90;;;;;;;4.29;79.39;96028.03;5093577;28;20048;-83
2023/10/08 01:30:08;;;;;;;0.80;0.80;;;;;;;4.30;78.33;96026.97;5093713;28;20052;-84
2023/10/08 01:32:36;;;;;;;0.90;0.90;;;;;;;4.27;78.72;96048.06;5093464;28;20062;-84
2023/10/08 01:35:12;;;;;;;0.90;0.90;;;;;;;4.24;79.18;96035.28;5092389;28;20135;-83
2023/10/08 01:37:43;;;;;;;1.00;1.00;;;;;;;4.23;79.19;96028.31;5093678;28;20052;-84
2023/10/08 01:40:11;;;;;;;0.90;0.90;;;;;;;4.22;78.54;96035.53;5091937;28;20048;-83
2023/10/08 01:42:39;;;;;;;0.80;0.80;;;;;;;4.20;78.12;96072.38;5093334;28;20134;-82
2023/10/08 01:45:09;;;;;;;0.90;0.90;;;;;;;4.17;77.97;96022.22;5093338;28;20082;-83
2023/10/08 01:47:37;;;;;;;0.90;0.90;;;;;;;4.11;78.34;96026.78;5093419;28;20048;-82
2023/10/08 01:50:21;;;;;;;0.90;0.90;;;;;;;4.08;78.28;96023.91;5093506;28;20071;-83
2023/10/08 01:52:49;;;;;;;0.90;0.90;;;;;;;4.08;78.04;96013.22;5075100;28;20109;-83
2023/10/08 01:55:19;;;;;;;0.90;0.90;;;;;;;4.07;77.42;96019.63;5093503;28;20052;-84
2023/10/08 01:57:47;;;;;;;0.90;0.90;;;;;;;4.05;77.27;96021.75;5093600;28;20052;-83
2023/10/08 02:00:19;;;;;;;1.00;1.00;;;;;;;4.06;77.07;96026.81;5092039;28;20047;-84
2023/10/08 02:02:50;;;;;;;0.93;0.93;;;;;;;4.03;76.52;96015.91;5093229;28;20048;-84
2023/10/08 02:05:18;;;;;;;1.00;1.00;;;;;;;3.98;76.87;96029.28;5042435;28;20044;-84
2023/10/08 02:07:46;;;;;;;1.00;1.00;;;;;;;4.02;76.58;96003.63;5042584;28;20044;-83
2023/10/08 02:10:18;;;;;;;0.80;0.80;;;;;;;4.00;76.26;96040.47;5058817;28;20052;-84
2023/10/08 02:13:17;;;;;;;0.90;0.90;;;;;;;3.98;76.34;96018.63;5054971;28;20560;-84
2023/10/08 02:16:02;;;;;;;0.90;0.90;;;;;;;3.84;76.82;96019.19;5036834;28;20212;-84
2023/10/08 02:18:59;;;;;;;0.90;0.90;;;;;;;3.82;77.10;96015.19;4924839;29;20461;-84
2023/10/08 02:21:51;;;;;;;0.90;0.90;;;;;;;3.81;76.64;96043.75;4923176;29;20055;-84
2023/10/08 02:24:38;;;;;;;1.00;1.00;;;;;;;3.73;76.64;95998.97;4897224;29;20598;-83
2023/10/08 02:30:46;;;;;;;0.80;0.80;;;;;;;3.70;76.60;96039.53;4854923;29;20060;-84
2023/10/08 02:33:31;;;;;;;0.98;0.98;;;;;;;3.66;76.35;96017.94;4833211;29;20058;-83
2023/10/08 02:36:44;;;;;;;1.00;1.00;;;;;;;3.74;76.26;96051.25;4808935;29;20110;-83
2023/10/08 02:40:30;;;;;;;0.90;0.90;;;;;;;3.67;76.63;96024.88;4802422;29;20046;-83
2023/10/08 02:43:45;;;;;;;1.00;1.00;;;;;;;3.59;76.98;96021.97;4753491;30;20124;-83
2023/10/08 02:46:47;;;;;;;0.80;0.80;;;;;;;3.56;77.23;96031.31;4734229;30;20082;-83
2023/10/08 02:49:40;;;;;;;0.90;0.90;;;;;;;3.51;77.18;96019.88;4713397;30;20061;-84
2023/10/08 02:52:46;;;;;;;0.90;0.90;;;;;;;3.47;77.40;96036.41;4662847;30;20058;-84
2023/10/08 02:55:44;;;;;;;0.90;0.90;;;;;;;3.50;77.74;96023.63;4616158;31;20215;-83
2023/10/08 02:58:54;;;;;;;0.88;0.88;;;;;;;3.47;77.74;96032.97;4665521;30;20161;-83
2023/10/08 03:01:49;;;;;;;1.00;1.00;;;;;;;3.31;78.10;96016.19;4628600;30;20066;-85
2023/10/08 03:04:27;;;;;;;1.00;1.00;;;;;;;3.33;78.55;96013.25;4687776;30;20081;-83
2023/10/08 03:07:35;;;;;;;1.00;1.00;;;;;;;3.30;78.42;96006.59;4702889;30;20054;-83
2023/10/08 03:10:32;;;;;;;1.00;1.00;;;;;;;3.26;78.22;95997.53;4739508;30;20556;-83
2023/10/08 03:13:51;;;;;;;1.00;1.00;;;;;;;3.33;77.94;96014.06;4741998;30;20561;-83
2023/10/08 03:17:23;;;;;;;1.00;1.00;;;;;;;3.33;77.76;96007.94;4758471;30;20085;-84
2023/10/08 03:23:34;;;;;;;0.90;0.90;;;;;;;3.39;77.73;96013.00;4784623;29;20078;-83
2023/10/08 03:26:10;;;;;;;0.90;0.90;;;;;;;3.42;77.75;96033.78;4814203;29;20060;-84
2023/10/08 03:28:41;;;;;;;0.90;0.90;;;;;;;3.41;77.61;96045.47;4875617;29;20097;-84
2023/10/08 03:31:17;;;;;;;1.00;1.00;;;;;;;3.39;77.67;96017.50;4915810;29;20054;-84
2023/10/08 03:33:51;;;;;;;0.90;0.90;;;;;;;3.39;77.65;96018.31;4931951;29;20142;-84
2023/10/08 03:36:22;;;;;;;0.90;0.90;;;;;;;3.39;77.44;96022.81;4932591;29;20138;-84
2023/10/08 03:38:50;;;;;;;0.90;0.90;;;;;;;3.40;77.24;96009.25;4945365;29;20146;-83
2023/10/08 03:41:32;;;;;;;1.00;1.00;;;;;;;3.41;77.17;96020.69;4998669;28;20052;-84
2023/10/08 03:44:05;;;;;;;0.90;0.90;;;;;;;3.42;77.15;96022.31;5050113;28;20037;-84
2023/10/08 03:46:41;;;;;;;0.90;0.90;;;;;;;3.38;77.16;96015.91;5017486;28;20045;-84
2023/10/08 03:49:15;;;;;;;0.90;0.90;;;;;;;3.35;77.35;96024.47;5049665;28;20040;-83
2023/10/08 03:51:42;;;;;;;0.90;0.90;;;;;;;3.40;77.00;96040.44;5049826;28;20141;-83
2023/10/08 03:56:36;;;;;;;0.90;0.90;;;;;;;3.42;76.25;96001.78;5037630;28;20049;-84
2023/10/08 03:59:12;;;;;;;0.90;0.90;;;;;;;3.40;76.20;96030.56;5053397;28;20522;-85
2023/10/08 04:01:43;;;;;;;0.90;0.90;;;;;;;3.40;76.07;96009.25;5078783;28;20059;-84
2023/10/08 04:04:14;;;;;;;0.85;0.85;;;;;;;3.38;76.09;96008.72;5094408;28;20509;-85
2023/10/08 04:06:54;;;;;;;0.90;0.90;;;;;;;3.39;75.78;96020.16;5096068;28;20567;-84
2023/10/08 04:09:24;;;;;;;0.90;0.90;;;;;;;3.36;75.59;96016.16;5096846;28;20052;-84
2023/10/08 04:11:53;;;;;;;0.90;0.90;;;;;;;3.37;75.46;96031.13;5094982;28;20052;-86
2023/10/08 04:14:24;;;;;;;0.90;0.90;;;;;;;3.38;75.36;96016.72;5094916;28;20040;-84
2023/10/08 04:16:52;;;;;;;0.90;0.90;;;;;;;3.35;75.69;96016.47;5096076;28;20081;-86
2023/10/08 04:19:26;;;;;;;0.90;0.90;;;;;;;3.31;75.79;96048.16;5095297;28;20089;-84
2023/10/08 04:21:54;;;;;;;;;;;;;;;3.34;75.92;96010.34;5096841;28;20048;-83
2023/10/08 04:24:28;;;;;;;0.80;0.80;;;;;;;3.30;76.29;95982.63;5096608;28;20470;-86
2023/10/08 04:26:57;;;;;;;1.00;1.00;;;;;;;3.22;76.88;96015.16;5078323;28;20051;-84
2023/10/08 04:29:31;;;;;;;0.90;0.90;;;;;;;3.15;77.31;96025.31;5095794;28;20051;-84
2023/10/08 04:32:02;;;;;;;0.93;0.93;;;;;;;3.11;77.95;96016.22;5094231;28;20048;-84
2023/10/08 04:34:29;;;;;;;1.00;1.00;;;;;;;3.14;77.85;96031.69;5095141;28;20060;-84
2023/10/08 04:37:12;;;;;;;0.90;0.90;;;;;;;3.22;77.41;96031.16;5095996;28;20048;-84
2023/10/08 04:39:46;;;;;;;0.90;0.90;;;;;;;3.28;77.33;96046.06;5079297;28;20452;-83
2023/10/08 04:42:25;;;;;;;0.98;0.98;;;;;;;3.33;76.57;96010.59;5094505;28;20083;-84
2023/10/08 04:44:54;;;;;;;0.90;0.90;;;;;;;3.35;76.38;96017.25;5095705;28;20056;-84
2023/10/08 04:47:31;;;;;;;1.00;1.00;;;;;;;3.37;76.11;96041.00;5095132;28;20052;-84
2023/10/08 04:50:04;;;;;;;0.90;0.90;;;;;;;3.36;76.35;96026.84;5094079;28;20052;-84
2023/10/08 04:52:34;;;;;;;0.90;0.90;;;;;;;3.36;76.53;96023.38;5093858;28;20052;-85
2023/10/08 04:55:15;;;;;;;1.00;1.00;;;;;;;3.36;76.51;96042.84;5094950;28;20409;-85
2023/10/08 04:57:42;;;;;;;0.80;0.80;;;;;;;3.38;76.84;96048.69;5093723;28;20464;-85
2023/10/08 05:00:14;;;;;;;0.95;0.95;;;;;;;3.35;76.77;96035.91;5094308;28;20155;-85
2023/10/08 05:02:53;;;;;;;0.77;0.77;;;;;;;3.36;77.15;96039.38;5094877;28;20044;-83
2023/10/08 05:15:37;;;;;;;0.90;0.90;;;;;;;3.22;79.17;96020.50;5094407;28;20074;-85
2023/10/08 05:28:26;;;;;;;1.17;1.17;;;;;;;3.22;79.06;96058.59;5093886;28;20563;-85
2023/10/08 05:30:54;;;;;;;1.10;1.10;;;;;;;3.24;79.55;96053.81;5092924;28;20498;-84
2023/10/08 05:33:25;;;;;;;0.95;0.95;;;;;;;3.21;79.75;96056.97;5109668;28;20429;-85
2023/10/08 05:35:56;;;;;;;1.10;1.10;;;;;;;3.18;80.26;96056.72;5107356;28;20048;-84
2023/10/08 05:54:36;;;;;;;1.05;1.05;;;;;;;3.10;79.78;96067.94;5101389;28;20453;-84
2023/10/08 06:13:43;;;;;;;1.00;1.00;;;;;;;3.55;74.56;96111.59;5099271;28;20553;-83
2023/10/08 06:16:30;;;;;;;1.00;1.00;;;;;;;3.46;73.98;96093.47;5105012;28;20074;-85
2023/10/08 06:18:57;;;;;;;1.00;1.00;;;;;;;3.44;73.50;96094.81;5100060;28;20058;-83
2023/10/08 06:21:26;;;;;;;0.90;0.90;;;;;;;3.38;73.34;96085.22;5098519;28;20047;-85
2023/10/08 06:23:56;;;;;;;1.10;1.10;;;;;;;3.41;73.74;96068.69;5096408;28;20087;-86
2023/10/08 06:26:25;;;;;;;1.10;1.10;;;;;;;3.50;72.88;96079.63;5071237;28;20464;-82
2023/10/08 06:28:57;;;;;;;0.98;0.98;;;;;;;3.55;72.42;96103.59;5089572;28;20375;-84
2023/10/08 06:31:26;;;;;;;0.90;0.90;;;;;;;3.44;71.60;96086.81;5097904;28;20043;-84
2023/10/08 06:33:54;;;;;;;0.90;0.90;;;;;;;3.38;72.74;96080.69;5102532;28;20410;-85
2023/10/08 06:36:24;;;;;;;1.05;1.05;;;;;;;3.42;72.61;96081.75;5100836;28;20525;-84
2023/10/08 06:38:51;;;;;;;0.90;0.90;;;;;;;3.39;72.42;96084.16;5099425;28;20056;-85
2023/10/08 06:41:19;;;;;;;0.95;0.95;;;;;;;3.30;72.88;96094.56;5101550;28;20598;-86
2023/10/08 06:44:06;;;;;;;1.00;1.00;;;;;;;3.29;73.67;96071.63;5103252;28;20501;-86
2023/10/08 06:46:34;;;;;;;0.95;0.95;;;;;;;3.18;74.15;96086.06;5080536;28;20488;-84
2023/10/08 06:49:03;;;;;;;0.90;0.90;;;;;;;3.04;75.42;96102.59;5100721;28;20040;-85
2023/10/08 06:51:32;;;;;;;1.00;1.00;;;;;;;2.98;75.81;96092.97;5102320;28;20052;-84
2023/10/08 06:54:02;;;;;;;1.00;1.00;;;;;;;2.90;76.26;96104.19;5099237;28;20485;-84
2023/10/08 06:56:33;;;;;;;1.00;1.00;;;;;;;2.85;76.33;96106.03;5090448;28;20955;-83
2023/10/08 06:59:02;;;;;;;1.00;1.00;;;;;;;2.74;76.95;96092.72;5107872;28;20576;-85
2023/10/08 07:01:38;;;;;;;1.00;1.00;;;;;;;2.75;77.21;96096.19;5107350;28;20112;-84
2023/10/08 07:04:12;;;;;;;1.00;1.00;;;;;;;2.83;77.02;96091.09;5111411;28;20438;-84
2023/10/08 07:06:50;;;;;;;1.13;1.13;;;;;;;2.93;76.48;96095.66;5087664;28;20051;-84
2023/10/08 07:11:57;;;;;;;1.10;1.10;;;;;;;2.93;76.93;96092.19;5109513;28;20562;-86
2023/10/08 07:14:26;;;;;;;1.10;1.10;;;;;;;3.02;76.58;96131.34;5105244;28;20052;-84
2023/10/08 07:16:59;;;;;;;0.82;0.82;;;;;;;3.00;76.47;96104.19;5108010;28;20134;-85
2023/10/08 07:22:22;;;;;;;0.90;0.90;;;;;;;2.86;78.34;96137.75;5109538;28;20105;-87
2023/10/08 07:24:51;;;;;;;1.00;1.00;;;;;;;2.74;79.30;96119.34;5108554;28;20050;-85
2023/10/08 07:27:29;;;;;;;0.80;0.80;;;;;;;2.64;80.32;96123.88;5108991;28;20062;-87
2023/10/08 07:30:01;;;;;;;0.82;0.82;;;;;;;2.42;80.34;96116.09;5105817;28;20098;-88
2023/10/08 07:32:34;;;;;;;1.05;1.05;;;;;;;2.32;81.07;96099.03;5090230;28;20684;-87
2023/10/08 07:35:23;;;;;;;0.90;0.90;;;;;;;2.44;81.42;96117.44;5105660;28;20043;-87
2023/10/08 07:37:53;;;;;;;1.00;1.00;;;;;;;2.36;82.29;96117.97;5102816;28;20051;-85
2023/10/08 07:40:20;;;;;;;1.02;1.02;;;;;;;2.36;82.20;96112.63;5083248;28;20053;-86
2023/10/08 07:42:51;;;;;;;1.00;1.00;;;;;;;2.36;82.77;96132.06;5053614;28;20098;-86
2023/10/08 07:45:21;;;;;;;0.82;0.82;;;;;;;2.32;83.23;96138.16;5077485;28;20127;-85
2023/10/08 07:47:49;;;;;;;1.08;1.08;;;;;;;2.28;83.12;96102.47;5080124;28;20052;-84
2023/10/08 07:50:16;;;;;;;1.00;1.00;;;;;;;2.37;82.62;96116.88;5047774;28;20087;-86
2023/10/08 07:52:44;;;;;;;1.10;1.10;;;;;;;2.48;82.35;96123.84;5063013;28;20067;-86
2023/10/08 07:55:17;;;;;;;1.10;1.10;;;;;;;2.55;81.49;96110.25;5064704;28;20147;-86
2023/10/08 07:57:46;;;;;;;1.00;1.00;;;;;;;2.69;79.68;96129.22;5087678;28;20056;-84
2023/10/08 08:00:18;;;;;;;1.10;1.10;;;;;;;2.79;79.06;96118.56;5072960;28;20079;-84
2023/10/08 08:02:46;;;;;;;0.90;0.90;;;;;;;2.82;78.95;96142.00;5072315;28;20749;-84
2023/10/08 08:05:16;;;;;;;1.10;1.10;;;;;;;2.81;78.68;96113.75;5082075;28;20055;-84
2023/10/08 08:07:45;;;;;;;1.00;1.00;;;;;;;2.92;77.97;96142.00;5061484;28;20741;-84
2023/10/08 08:10:14;;;;;;;1.10;1.10;;;;;;;2.91;77.88;96139.59;5068564;28;20052;-84
2023/10/08 08:12:42;;;;;;;1.00;1.00;;;;;;;2.80;76.42;96128.16;5100609;28;20076;-84
2023/10/08 08:15:15;;;;;;;1.00;1.00;;;;;;;2.73;76.56;96111.63;5096074;28;20143;-84
2023/10/08 08:17:43;;;;;;;1.00;1.00;;;;;;;2.74;76.46;96134.53;5116739;28;20512;-83
2023/10/08 08:20:17;;;;;;;1.10;1.10;;;;;;;2.83;75.93;96130.28;5105416;28;20048;-85
2023/10/08 08:22:54;;;;;;;1.10;1.10;;;;;;;2.78;75.28;96164.88;5110342;28;20040;-84
2023/10/08 08:25:34;;;;;;;1.00;1.00;;;;;;;2.76;75.21;96148.38;5075229;28;20040;-84
2023/10/08 08:28:06;;;;;;;1.02;1.02;;;;;;;2.83;75.29;96138.25;5110302;28;20066;-84
2023/10/08 08:30:36;;;;;;;1.00;1.00;;;;;;;2.92;74.82;96151.88;5104845;28;20051;-83
2023/10/08 08:33:10;;;;;;;1.10;1.10;;;;;;;2.88;74.00;96124.94;5102461;28;20541;-85
2023/10/08 08:35:39;;;;;;;0.98;0.98;;;;;;;2.99;73.60;96147.88;5109268;28;20079;-84
2023/10/08 08:38:08;;;;;;;1.10;1.10;;;;;;;3.10;73.30;96132.69;5107730;28;20142;-84
2023/10/08 08:40:36;;;;;;;1.10;1.10;;;;;;;3.23;71.47;96161.47;5113083;28;20044;-84
2023/10/08 08:43:05;;;;;;;0.82;0.82;;;;;;;3.13;71.27;96134.03;5113750;28;20042;-84
2023/10/08 08:45:35;;;;;;;0.93;0.93;;;;;;;3.02;71.43;96159.88;5092078;28;20051;-84
2023/10/08 08:48:02;;;;;;;0.80;0.80;;;;;;;2.96;71.95;96188.38;5113811;28;20134;-83
2023/10/08 08:50:30;;;;;;;0.90;0.90;;;;;;;3.00;71.80;96205.41;5113910;28;20078;-83
2023/10/08 08:52:58;;;;;;;1.10;1.10;;;;;;;2.90;72.19;96176.09;5106477;28;20063;-85
2023/10/08 08:55:27;;;;;;;1.00;1.00;;;;;;;2.98;71.95;96172.91;5110947;28;20047;-83
2023/10/08 08:57:55;;;;;;;1.00;1.00;;;;;;;3.04;71.95;96171.88;5085473;28;20047;-83
2023/10/08 09:00:28;;;;;;;1.10;1.10;;;;;;;3.07;71.48;96161.75;5108911;28;20100;-85
2023/10/08 09:02:56;;;;;;;0.85;0.85;;;;;;;3.19;70.70;96184.41;5096257;28;20048;-83
2023/10/08 09:05:24;;;;;;;1.05;1.05;;;;;;;3.23;71.02;96190.00;5101354;28;20051;-83
2023/10/08 09:07:54;;;;;;;1.00;1.00;;;;;;;3.39;70.94;96199.59;5111006;28;20054;-84
2023/10/08 09:10:27;;;;;;;1.10;1.10;;;;;;;3.37;70.95;96175.06;5096369;28;20104;-85
2023/10/08 09:12:58;;;;;;;1.00;1.00;;;;;;;3.33;71.27;96266.50;5113368;28;20048;-85
2023/10/08 09:15:26;;;;;;;1.15;1.13;;;;;;;3.44;70.84;96164.13;5114756;28;20068;-84
2023/10/08 09:17:55;;;;;;;1.10;1.10;;;;;;;3.59;70.40;96176.63;5074362;28;20078;-85
2023/10/08 09:20:23;;;;;;;1.30;1.20;;;;;;;3.87;68.48;96146.72;5112386;27;20047;-84
2023/10/08 09:23:13;;;;;;;1.10;1.10;;;;;;;3.95;68.14;96174.72;5099209;28;20084;-83
2023/10/08 09:25:42;;;;;;;1.10;1.10;;;;;;;4.32;67.34;96185.00;5101002;28;20436;-86
2023/10/08 09:28:14;;;;;;;1.30;1.20;;;;;;;4.57;65.25;96180.63;5086571;28;20063;-88
2023/10/08 09:30:42;;;;;;;1.10;1.10;;;;;;;4.42;64.88;96183.38;5083075;28;20532;-85
2023/10/08 09:33:12;;;;;;;1.20;1.20;;;;;;;4.59;63.54;96183.81;5092640;28;20113;-85
2023/10/08 09:35:39;;;;;;;0.98;0.98;;;;;;;4.22;63.83;96168.22;5092558;28;20119;-83
2023/10/08 09:38:11;;;;;;;0.80;0.80;;;;;;;3.95;65.13;96182.72;5109312;28;20047;-84
2023/10/08 09:40:46;;;;;;;1.00;1.00;;;;;;;3.90;65.83;96193.41;5096534;28;20048;-84
2023/10/08 09:43:16;;;;;;;1.00;1.00;;;;;;;3.78;65.89;96179.56;5081786;28;20047;-84
2023/10/08 09:45:47;;;;;;;1.00;1.00;;;;;;;3.78;66.42;96177.69;5081148;28;20091;-84
2023/10/08 09:48:17;;;;;;;1.10;1.10;;;;;;;3.73;66.56;96198.25;5093364;28;20405;-86
2023/10/08 09:50:45;;;;;;;0.98;0.98;;;;;;;3.61;66.96;96163.84;5112516;28;20441;-86
2023/10/08 09:53:31;;;;;;;1.10;1.10;;;;;;;3.60;68.29;96184.38;5091653;28;20067;-83
2023/10/08 09:55:58;;;;;;;1.00;1.00;;;;;;;3.75;68.49;96190.75;5105716;28;20040;-84
2023/10/08 09:58:27;;;;;;;1.00;1.00;;;;;;;3.69;69.17;96205.97;5064655;28;20055;-85
2023/10/08 10:00:56;;;;;;;0.95;0.95;;;;;;;3.58;69.18;96196.38;5101387;28;20081;-83
2023/10/08 10:03:36;;;;;;;1.00;1.00;;;;;;;3.38;69.92;96198.00;5053433;28;20150;-83
2023/10/08 10:06:09;;;;;;;1.00;1.00;;;;;;;3.40;70.35;96195.88;5086308;28;20079;-84
2023/10/08 10:08:36;;;;;;;1.00;1.00;;;;;;;3.27;70.52;96212.41;5103613;28;20435;-83
2023/10/08 10:11:04;;;;;;;1.00;1.00;;;;;;;3.14;71.95;96231.53;5110575;28;20100;-85
2023/10/08 10:13:39;;;;;;;1.10;1.10;;;;;;;2.89;74.06;96257.09;5082827;28;20058;-85
2023/10/08 10:16:10;;;;;;;1.10;1.10;;;;;;;2.73;75.57;96228.78;5108341;28;20044;-85
2023/10/08 10:18:39;;;;;;;1.10;1.10;;;;;;;2.59;77.11;96212.53;5100673;28;20076;-86
2023/10/08 10:21:12;;;;;;;1.00;1.00;;;;;;;2.67;78.27;96221.88;5093523;28;20496;-84
2023/10/08 10:23:44;;;;;;;1.10;1.10;;;;;;;2.68;78.59;96226.91;5104990;28;20054;-83
2023/10/08 10:26:28;;;;;;;1.10;1.10;;;;;;;2.75;78.46;96234.66;5112217;28;20051;-85
2023/10/08 10:29:14;;;;;;;0.90;0.90;;;;;;;2.79;78.62;96222.44;5115618;28;20074;-85
2023/10/08 10:31:46;;;;;;;1.10;1.10;;;;;;;2.83;79.22;96239.47;5107627;28;20051;-83
2023/10/08 10:34:19;;;;;;;1.08;1.08;;;;;;;2.83;78.45;96240.28;5086553;28;20086;-85
2023/10/08 10:36:49;;;;;;;1.00;1.00;;;;;;;2.78;79.79;96226.16;5105663;28;20075;-82
2023/10/08 10:39:28;;;;;;;1.10;1.10;;;;;;;2.62;79.96;96227.97;5092742;28;20100;-84
2023/10/08 10:42:01;;;;;;;1.10;1.10;;;;;;;2.51;80.62;96210.38;5110474;28;20130;-82
2023/10/08 10:44:30;;;;;;;1.00;1.00;;;;;;;2.38;81.39;96222.28;5107326;28;20523;-85
2023/10/08 10:52:31;;;;;;;;;;;;;;;1.56;86.43;96255.56;5119787;28;20048;-84
2023/10/08 10:58:38;;;;;;;1.00;1.00;;;;;;;1.34;90.38;96245.81;5110201;28;20147;-85
2023/10/08 11:04:05;;;;;;;1.00;1.00;;;;;;;1.30;91.72;96255.38;5111601;28;20067;-86
2023/10/08 11:06:44;;;;;;;1.05;1.05;;;;;;;1.23;92.52;96233.50;5105603;27;20052;-84
2023/10/08 11:09:17;;;;;;;0.93;0.93;;;;;;;1.32;93.35;96253.25;5091169;28;20044;-83
2023/10/08 11:11:45;;;;;;;0.90;0.90;;;;;;;1.24;93.18;96254.53;5093186;28;20047;-84
2023/10/08 11:14:18;;;;;;;0.90;0.90;;;;;;;1.23;93.83;96242.28;5110636;28;20394;-83
2023/10/08 11:16:47;;;;;;;1.20;1.20;;;;;;;1.23;94.56;96244.94;5109529;28;20051;-84
2023/10/08 11:19:15;;;;;;;1.00;1.00;;;;;;;1.30;94.57;96250.84;5108159;28;20056;-84
2023/10/08 11:21:55;;;;;;;0.90;0.90;;;;;;;1.30;94.42;96276.63;5106450;28;20043;-85
2023/10/08 11:24:33;;;;;;;1.10;1.10;;;;;;;1.19;94.47;96249.16;5103403;28;20447;-85
2023/10/08 11:27:06;;;;;;;1.15;1.15;;;;;;;1.24;95.22;96257.19;5112501;28;20051;-86
2023/10/08 11:29:33;;;;;;;1.00;1.00;;;;;;;1.30;95.97;96252.72;5110619;28;20055;-85
2023/10/08 11:32:00;;;;;;;1.00;1.00;;;;;;;1.26;96.44;96249.75;5105411;28;20051;-85
2023/10/08 11:34:39;;;;;;;1.00;1.00;;;;;;;1.18;96.18;96254.72;5108195;28;20509;-83
2023/10/08 11:37:19;;;;;;;1.00;1.00;;;;;;;1.20;96.67;96265.91;5083027;28;20105;-87
2023/10/08 11:39:53;;;;;;;1.00;1.00;;;;;;;1.13;97.00;96254.66;5093914;28;20573;-84
2023/10/08 11:44:59;;;;;;;1.00;1.00;;;;;;;0.91;97.52;96268.00;5102311;28;20044;-84
2023/10/08 11:47:35;;;;;;;1.00;1.00;;;;;;;0.91;98.05;96246.75;5099251;28;20059;-84
2023/10/08 11:50:17;;;;;;;0.80;0.80;;;;;;;0.89;98.17;96262.13;5104266;28;20071;-84
2023/10/08 11:52:49;;;;;;;1.10;1.10;;;;;;;0.88;98.49;96257.88;5104322;28;20048;-84
2023/10/08 11:55:19;;;;;;;1.10;1.10;;;;;;;0.82;99.11;96243.75;5093609;28;20051;-85
2023/10/08 11:57:50;;;;;;;1.10;1.10;;;;;;;0.88;99.60;96263.97;5079873;28;20058;-84
2023/10/08 12:00:20;;;;;;;1.00;1.00;;;;;;;0.72;99.35;96252.41;5110391;28;20051;-85
2023/10/08 12:02:54;;;;;;;1.00;1.00;;;;;;;0.74;100.00;96247.66;5110458;28;20074;-83
2023/10/08 12:05:24;;;;;;;1.00;1.00;;;;;;;0.74;100.00;96252.16;5103110;28;20055;-84
2023/10/08 12:07:55;;;;;;;0.98;0.98;;;;;;;0.81;100.00;96258.06;5091064;28;20048;-84
2023/10/08 12:10:22;;;;;;;1.00;1.00;;;;;;;0.69;100.00;96252.91;5103128;28;20143;-85
2023/10/08 12:12:54;;;;;;;0.80;0.80;;;;;;;0.71;100.00;96242.84;5090452;28;20051;-81
2023/10/08 12:15:22;;;;;;;0.95;0.95;;;;;;;0.73;100.00;96242.56;5091006;28;20055;-82
2023/10/08 12:20:39;;;;;;;0.90;0.90;;;;;;;0.69;100.00;96252.91;5103651;28;20048;-82
2023/10/08 12:23:10;;;;;;;1.02;1.02;;;;;;;0.71;100.00;96247.31;5102859;28;20047;-83
2023/10/08 12:25:37;;;;;;;0.95;0.95;;;;;;;0.62;100.00;96237.16;5104489;28;20059;-82
2023/10/08 12:28:16;;;;;;;0.88;0.88;;;;;;;0.63;100.00;96245.91;5103056;28;20562;-82
2023/10/08 12:30:43;;;;;;;0.90;0.90;;;;;;;0.64;100.00;96258.94;5103309;28;20044;-85
2023/10/08 12:33:12;;;;;;;1.00;1.00;;;;;;;0.55;100.00;96249.81;5088385;28;20652;-83
2023/10/08 12:35:40;;;;;;;0.80;0.80;;;;;;;0.57;100.00;96262.84;5102941;28;20047;-82
2023/10/08 12:38:08;;;;;;;0.90;0.90;;;;;;;0.49;100.00;96250.00;5102066;28;20073;-83
2023/10/08 12:40:47;;;;;;;0.90;0.90;;;;;;;0.46;100.00;96261.09;5107801;28;20067;-84
2023/10/08 12:43:19;;;;;;;1.10;1.10;;;;;;;0.50;100.00;96248.94;5077950;28;20075;-85
2023/10/08 12:45:53;;;;;;;1.00;1.00;;;;;;;0.48;100.00;96248.41;5092334;28;20048;-84
2023/10/08 12:48:26;;;;;;;1.10;1.10;;;;;;;0.48;100.00;96253.69;5094958;28;20052;-85
2023/10/08 12:50:56;;;;;;;0.95;0.95;;;;;;;0.52;100.00;96249.50;5112376;28;20048;-85
2023/10/08 12:53:27;;;;;;;1.10;1.10;;;;;;;0.50;100.00;96243.66;5112423;28;20059;-85
2023/10/08 12:55:54;;;;;;;1.10;1.10;;;;;;;0.49;100.00;96252.66;5104333;28;20054;-84
2023/10/08 12:58:25;;;;;;;0.98;0.98;;;;;;;0.49;100.00;96250.81;5113179;28;20051;-84
2023/10/08 13:00:57;;;;;;;1.00;1.00;;;;;;;0.44;100.00;96245.44;5115072;28;20051;-85
2023/10/08 13:03:30;;;;;;;0.93;0.93;;;;;;;0.47;100.00;96242.28;5117576;28;20044;-86
2023/10/08 13:06:05;;;;;;;1.00;1.00;;;;;;;0.53;100.00;96261.72;5112455;28;20044;-84
2023/10/08 13:08:35;;;;;;;1.00;1.00;;;;;;;0.53;100.00;96251.94;5104727;28;20054;-84
2023/10/08 13:11:03;;;;;;;0.98;0.98;;;;;;;0.57;100.00;96249.56;5113883;28;20044;-84
2023/10/08 13:13:32;;;;;;;0.98;0.98;;;;;;;0.53;100.00;96257.25;5111774;28;20506;-83
2023/10/08 13:16:03;;;;;;;1.00;1.00;;;;;;;0.47;100.00;96257.41;5114094;28;20052;-84
2023/10/08 13:18:32;;;;;;;0.80;0.80;;;;;;;0.40;100.00;96247.78;5112821;28;20108;-83
2023/10/08 13:21:00;;;;;;;0.90;0.90;;;;;;;0.40;100.00;96255.72;5104949;28;20054;-83
2023/10/08 13:23:28;;;;;;;0.90;0.90;;;;;;;0.37;100.00;96274.81;5106345;28;20044;-81
2023/10/08 13:25:55;;;;;;;0.88;0.88;;;;;;;0.33;100.00;96247.19;5113173;28;20054;-83
2023/10/08 13:28:22;;;;;;;1.00;1.00;;;;;;;0.29;100.00;96240.75;5111019;28;20051;-83
2023/10/08 13:30:52;;;;;;;0.98;0.98;;;;;;;0.33;100.00;96259.63;5089228;28;20062;-85
2023/10/08 13:33:22;;;;;;;0.95;0.95;;;;;;;0.30;100.00;96258.25;5106331;28;20060;-83
2023/10/08 13:35:49;;;;;;;0.90;0.90;;;;;;;0.27;100.00;96260.63;5112789;28;20447;-83
2023/10/08 13:38:33;;;;;;;1.00;1.00;;;;;;;0.23;100.00;96249.69;5111139;28;20100;-84
2023/10/08 13:41:03;;;;;;;0.90;0.90;;;;;;;0.21;100.00;96249.94;5113306;28;20146;-84
2023/10/08 13:43:34;;;;;;;0.90;0.90;;;;;;;0.22;100.00;96258.69;5113258;28;20458;-86